createdAt,value
2018-12-08T00:00:17.089Z,20.40
2018-12-08T00:03:11.817Z,19.30
2018-12-08T00:05:56.584Z,21.20
2018-12-08T00:08:43.569Z,19.70
2018-12-08T00:11:35.369Z,21.40
2018-12-08T00:17:06.088Z,20.80
2018-12-08T00:24:10.486Z,20.70
2018-12-08T00:27:04.771Z,20.70
2018-12-08T00:29:50.811Z,20.50
2018-12-08T00:32:39.715Z,21.10
2018-12-08T00:35:24.519Z,20.80
2018-12-08T00:38:17.293Z,21.70
2018-12-08T00:41:00.511Z,23.00
2018-12-08T00:43:48.023Z,22.80
2018-12-08T00:46:37.911Z,23.60
2018-12-08T00:49:19.634Z,22.80
2018-12-08T00:52:10.868Z,23.50
2018-12-08T00:58:06.675Z,23.10
2018-12-08T01:00:51.543Z,24.20
2018-12-08T01:03:33.261Z,24.90
2018-12-08T01:09:09.641Z,25.00
2018-12-08T01:11:57.295Z,26.10
2018-12-08T01:17:46.595Z,24.20
2018-12-08T01:20:32.816Z,23.50
2018-12-08T01:23:19.557Z,21.70
2018-12-08T01:26:00.175Z,22.80
2018-12-08T01:28:42.191Z,19.90
2018-12-08T01:31:21.581Z,20.70
2018-12-08T01:33:58.838Z,18.40
2018-12-08T01:36:37.915Z,18.00
2018-12-08T01:39:14.861Z,16.90
2018-12-08T01:41:52.469Z,17.60
2018-12-08T01:44:37.785Z,17.40
2018-12-08T01:47:14.350Z,16.50
2018-12-08T01:49:50.110Z,17.70
2018-12-08T01:52:25.554Z,17.40
2018-12-08T01:55:03.772Z,17.80
2018-12-08T01:57:39.888Z,18.50
2018-12-08T02:00:32.782Z,19.90
2018-12-08T02:03:07.598Z,20.50
2018-12-08T02:08:40.806Z,21.40
2018-12-08T02:11:15.243Z,22.00
2018-12-08T02:13:53.392Z,23.00
2018-12-08T02:16:28.603Z,23.20
2018-12-08T02:19:03.904Z,23.00
2018-12-08T02:21:39.092Z,22.00
2018-12-08T02:24:20.478Z,21.40
2018-12-08T02:27:08.611Z,21.90
2018-12-08T02:29:50.073Z,21.30
2018-12-08T02:32:24.387Z,21.20
2018-12-08T02:35:01.090Z,20.60
2018-12-08T02:37:36.974Z,22.00
2018-12-08T02:40:19.548Z,21.90
2018-12-08T02:42:54.398Z,21.70
2018-12-08T02:45:35.639Z,21.70
2018-12-08T02:48:14.412Z,22.30
2018-12-08T02:50:50.026Z,21.90
2018-12-08T02:53:28.537Z,20.90
2018-12-08T02:56:07.550Z,19.40
2018-12-08T02:58:55.037Z,19.10
2018-12-08T03:01:34.206Z,18.80
2018-12-08T03:04:10.098Z,18.30
2018-12-08T03:06:51.995Z,18.60
2018-12-08T03:09:29.132Z,18.00
2018-12-08T03:12:09.560Z,19.10
2018-12-08T03:14:56.330Z,18.30
2018-12-08T03:17:31.949Z,16.20
2018-12-08T03:20:10.313Z,15.80
2018-12-08T03:22:55.057Z,14.00
2018-12-08T03:25:30.906Z,14.00
2018-12-08T03:28:19.017Z,12.30
2018-12-08T03:30:53.433Z,11.30
2018-12-08T03:33:34.505Z,10.10
2018-12-08T03:36:12.090Z,8.10
2018-12-08T03:38:47.235Z,4.60
2018-12-08T03:41:34.859Z,4.70
2018-12-08T03:44:24.057Z,3.90
2018-12-08T03:47:09.275Z,2.40
2018-12-08T03:49:50.341Z,4.00
2018-12-08T03:52:27.858Z,3.20
2018-12-08T03:55:11.356Z,4.90
2018-12-08T03:57:52.468Z,6.40
2018-12-08T04:00:30.839Z,7.60
2018-12-08T04:03:06.345Z,7.50
2018-12-08T04:08:45.823Z,9.60
2018-12-08T04:11:26.630Z,8.70
2018-12-08T04:14:02.766Z,9.90
2018-12-08T04:16:38.570Z,10.20
2018-12-08T04:19:17.901Z,10.10
2018-12-08T04:21:53.691Z,9.80
2018-12-08T04:24:29.207Z,8.80
2018-12-08T04:27:03.790Z,8.80
2018-12-08T04:29:39.633Z,8.80
2018-12-08T04:32:14.918Z,8.30
2018-12-08T04:34:49.570Z,8.80
2018-12-08T04:37:23.980Z,8.70
2018-12-08T04:39:59.516Z,6.50
2018-12-08T04:42:42.258Z,6.40
2018-12-08T04:45:18.975Z,5.10
2018-12-08T04:47:58.545Z,5.80
2018-12-08T04:50:33.608Z,6.10
2018-12-08T04:56:15.743Z,6.10
2018-12-08T04:58:54.350Z,5.70
2018-12-08T05:04:35.046Z,6.60
2018-12-08T05:07:09.587Z,6.80
2018-12-08T05:09:45.953Z,6.70
2018-12-08T05:12:21.338Z,7.30
2018-12-08T05:14:56.471Z,6.80
2018-12-08T05:17:31.651Z,7.00
2018-12-08T05:20:06.493Z,7.70
2018-12-08T05:22:41.974Z,7.40
2018-12-08T05:25:22.886Z,7.80
2018-12-08T05:27:59.659Z,6.50
2018-12-08T05:30:46.493Z,5.10
2018-12-08T05:33:24.559Z,6.30
2018-12-08T05:36:00.420Z,6.00
2018-12-08T05:38:35.097Z,5.60
2018-12-08T05:41:11.012Z,6.00
2018-12-08T05:43:49.985Z,6.10
2018-12-08T05:46:24.898Z,5.30
2018-12-08T05:48:59.876Z,6.10
2018-12-08T05:51:35.095Z,6.50
2018-12-08T05:54:16.931Z,5.90
2018-12-08T05:56:56.115Z,6.20
2018-12-08T05:59:42.895Z,5.70
2018-12-08T06:02:29.311Z,5.20
2018-12-08T06:05:17.035Z,5.30
2018-12-08T06:07:51.711Z,4.90
2018-12-08T06:10:32.339Z,5.00
2018-12-08T06:13:06.548Z,5.40
2018-12-08T06:15:41.555Z,5.40
2018-12-08T06:18:17.846Z,5.50
2018-12-08T06:21:06.211Z,5.40
2018-12-08T06:23:50.847Z,5.20
2018-12-08T06:26:33.553Z,5.30
2018-12-08T06:29:10.262Z,5.30
2018-12-08T06:31:51.391Z,5.90
2018-12-08T06:34:27.587Z,5.30
2018-12-08T06:37:07.615Z,5.80
2018-12-08T06:39:55.583Z,5.50
2018-12-08T06:42:34.319Z,4.70
2018-12-08T06:45:20.798Z,4.70
2018-12-08T06:48:00.419Z,4.50
2018-12-08T06:50:46.922Z,5.50
2018-12-08T06:53:32.334Z,5.80
2018-12-08T06:56:15.888Z,6.70
2018-12-08T07:01:52.261Z,8.50
2018-12-08T07:04:28.954Z,9.30
2018-12-08T07:07:10.304Z,9.80
2018-12-08T07:09:46.439Z,10.40
2018-12-08T07:12:24.870Z,11.60
2018-12-08T07:15:05.475Z,12.40
2018-12-08T07:17:42.370Z,13.40
2018-12-08T07:20:18.624Z,14.70
2018-12-08T07:23:01.229Z,15.30
2018-12-08T07:25:49.996Z,15.40
2018-12-08T07:31:15.899Z,16.30
2018-12-08T07:34:00.171Z,16.00
2018-12-08T07:36:38.279Z,16.80
2018-12-08T07:39:16.900Z,16.80
2018-12-08T07:41:52.786Z,17.70
2018-12-08T07:47:40.315Z,19.10
2018-12-08T07:50:25.353Z,20.40
2018-12-08T07:53:17.323Z,20.50
2018-12-08T08:43:22.286Z,17.00
2018-12-08T08:45:58.126Z,17.00
2018-12-08T08:48:33.335Z,16.80
2018-12-08T08:51:15.256Z,15.20
2018-12-08T08:54:00.268Z,15.40
2018-12-08T08:56:37.483Z,15.30
2018-12-08T08:59:12.937Z,14.50
2018-12-08T09:01:56.455Z,13.60
2018-12-08T09:04:32.877Z,14.20
2018-12-08T09:07:07.475Z,14.40
2018-12-08T09:09:45.961Z,13.50
2018-12-08T09:12:21.256Z,13.30
2018-12-08T09:14:55.844Z,13.50
2018-12-08T09:17:31.438Z,13.90
2018-12-08T09:20:08.715Z,13.90
2018-12-08T09:22:56.879Z,14.20
2018-12-08T09:25:33.371Z,14.10
2018-12-08T09:28:12.148Z,15.10
2018-12-08T09:31:04.779Z,14.50
2018-12-08T09:33:41.757Z,14.20
2018-12-08T09:36:25.676Z,15.50
2018-12-08T09:39:12.704Z,15.30
2018-12-08T09:41:57.769Z,15.50
2018-12-08T09:44:39.349Z,15.50
2018-12-08T09:47:22.185Z,15.70
2018-12-08T09:50:12.306Z,14.50
2018-12-08T09:53:27.366Z,14.60
2018-12-08T09:56:05.503Z,14.30
2018-12-08T09:58:42.445Z,13.40
2018-12-08T10:01:34.579Z,13.40
2018-12-08T10:04:09.761Z,13.00
2018-12-08T10:06:45.976Z,12.30
2018-12-08T10:09:28.948Z,12.20
2018-12-08T10:12:07.657Z,11.50
2018-12-08T10:17:42.402Z,11.60
2018-12-08T10:20:28.401Z,11.50
2018-12-08T10:23:04.470Z,11.70
2018-12-08T10:25:43.098Z,11.30
2018-12-08T10:28:19.194Z,11.60
2018-12-08T10:31:12.313Z,11.80
2018-12-08T10:33:54.400Z,11.80
2018-12-08T10:36:32.283Z,12.60
2018-12-08T10:39:09.020Z,16.90
2018-12-08T10:41:51.771Z,21.50
2018-12-08T10:44:32.845Z,22.60
2018-12-08T10:47:22.563Z,24.70
2018-12-08T10:50:13.163Z,30.00
2018-12-08T10:52:51.758Z,33.80
2018-12-08T10:55:31.670Z,35.30
2018-12-08T10:58:20.314Z,33.50
2018-12-08T11:01:12.269Z,31.60
2018-12-08T11:03:52.116Z,31.60
2018-12-08T11:06:31.150Z,33.50
2018-12-08T11:09:07.775Z,31.60
2018-12-08T11:11:44.101Z,33.70
2018-12-08T11:14:22.477Z,33.90
2018-12-08T11:16:59.061Z,33.70
2018-12-08T11:19:38.329Z,30.60
2018-12-08T11:22:17.185Z,31.50
2018-12-08T11:24:52.964Z,29.80
2018-12-08T11:27:35.016Z,30.50
2018-12-08T11:30:24.993Z,32.60
2018-12-08T11:33:03.527Z,37.10
2018-12-08T11:35:42.735Z,38.70
2018-12-08T11:38:18.470Z,37.10
2018-12-08T11:41:11.053Z,40.20
2018-12-08T11:43:50.812Z,40.20
2018-12-08T11:52:44.679Z,42.20
2018-12-08T11:55:20.179Z,42.70
2018-12-08T11:57:54.450Z,42.50
2018-12-08T12:00:29.154Z,42.80
2018-12-08T12:03:04.327Z,43.00
2018-12-08T12:05:38.594Z,43.10
2018-12-08T12:08:13.010Z,41.50
2018-12-08T12:10:47.399Z,40.80
2018-12-08T12:13:22.653Z,40.20
2018-12-08T12:15:57.268Z,40.30
2018-12-08T12:18:31.640Z,40.30
2018-12-08T12:21:05.971Z,40.40
2018-12-08T12:23:40.412Z,39.10
2018-12-08T12:26:14.816Z,39.80
2018-12-08T12:28:49.223Z,38.90
2018-12-08T12:31:24.199Z,38.40
2018-12-08T12:33:58.659Z,38.70
2018-12-08T12:36:33.144Z,39.80
2018-12-08T12:39:07.842Z,40.50
2018-12-08T12:41:42.884Z,40.60
2018-12-08T12:44:18.067Z,39.50
2018-12-08T12:46:54.126Z,38.60
2018-12-08T12:49:36.744Z,36.30
2018-12-08T12:52:11.703Z,35.90
2018-12-08T12:54:46.359Z,33.70
2018-12-08T12:57:21.008Z,32.10
2018-12-08T12:59:56.632Z,32.20
2018-12-08T13:02:31.519Z,31.50
2018-12-08T13:05:05.999Z,29.00
2018-12-08T13:07:40.534Z,29.20
2018-12-08T13:10:14.927Z,28.60
2018-12-08T13:12:49.287Z,28.40
2018-12-08T13:15:23.691Z,29.50
2018-12-08T13:17:58.154Z,28.80
2018-12-08T13:20:32.655Z,26.10
2018-12-08T13:23:07.144Z,27.60
2018-12-08T13:26:01.135Z,26.50
2018-12-08T13:32:01.058Z,25.70
2018-12-08T13:34:38.882Z,25.00
2018-12-08T13:37:14.974Z,22.70
2018-12-08T13:39:49.955Z,21.80
2018-12-08T13:42:26.054Z,21.90
2018-12-08T13:45:18.739Z,22.50
2018-12-08T13:47:54.343Z,31.20
2018-12-08T13:50:30.492Z,34.80
2018-12-08T13:53:08.817Z,35.40
2018-12-08T13:55:44.391Z,32.20
2018-12-08T14:04:25.888Z,29.30
2018-12-08T14:07:16.673Z,31.20
2018-12-08T14:10:09.218Z,30.50
2018-12-08T14:16:05.661Z,26.60
2018-12-08T14:18:42.082Z,23.80
2018-12-08T14:21:19.919Z,23.10
2018-12-08T14:23:57.751Z,23.90
2018-12-08T14:26:33.964Z,23.30
2018-12-08T14:29:09.703Z,25.00
2018-12-08T14:31:48.001Z,24.90
2018-12-08T14:34:24.592Z,22.50
2018-12-08T14:37:00.529Z,24.00
2018-12-08T14:39:35.704Z,24.90
2018-12-08T14:42:12.119Z,23.90
2018-12-08T14:44:50.352Z,25.90
2018-12-08T14:47:25.794Z,24.80
2018-12-08T14:50:03.319Z,24.80
2018-12-08T14:52:39.494Z,23.50
2018-12-08T14:55:16.618Z,22.50
2018-12-08T15:30:13.432Z,22.40
2018-12-08T15:32:53.352Z,21.50
2018-12-08T15:35:36.210Z,22.70
2018-12-08T15:38:14.948Z,22.90
2018-12-08T15:40:52.874Z,22.40
2018-12-08T15:43:30.593Z,24.50
2018-12-08T15:46:05.562Z,27.00
2018-12-08T15:48:40.549Z,28.20
2018-12-08T15:51:15.166Z,30.00
2018-12-08T15:54:01.254Z,31.20
2018-12-08T15:56:37.946Z,31.80
2018-12-08T15:59:17.923Z,31.80
2018-12-08T16:01:54.401Z,30.10
2018-12-08T16:04:34.630Z,30.70
2018-12-08T16:07:15.478Z,27.90
2018-12-08T16:09:50.487Z,26.10
2018-12-08T16:12:31.081Z,24.70
2018-12-08T16:15:08.366Z,23.60
2018-12-08T16:17:45.493Z,22.20
2018-12-08T16:20:24.952Z,22.00
2018-12-08T16:23:01.983Z,23.70
2018-12-08T16:25:40.502Z,26.30
2018-12-08T16:28:24.669Z,33.20
2018-12-08T16:31:02.112Z,36.90
2018-12-08T16:33:40.690Z,41.70
2018-12-08T16:39:14.949Z,44.90
2018-12-08T16:41:51.036Z,43.90
2018-12-08T16:47:31.515Z,43.60
2018-12-08T16:50:15.250Z,43.30
2018-12-08T16:56:01.331Z,39.20
2018-12-08T16:58:44.238Z,37.90
2018-12-08T17:01:19.886Z,37.40
2018-12-08T17:03:56.779Z,35.40
2018-12-08T17:06:37.215Z,33.70
2018-12-08T17:09:16.199Z,32.90
2018-12-08T17:11:55.325Z,32.00
2018-12-08T17:14:38.143Z,29.90
2018-12-08T17:17:15.983Z,28.70
2018-12-08T17:19:50.695Z,29.90
2018-12-08T17:22:26.170Z,27.10
2018-12-08T17:25:12.462Z,24.40
2018-12-08T17:27:48.722Z,24.00
2018-12-08T17:30:23.836Z,25.00
2018-12-08T17:36:02.291Z,23.20
2018-12-08T17:38:42.056Z,24.50
2018-12-08T17:41:18.950Z,24.50
2018-12-08T17:46:51.514Z,24.50
2018-12-08T17:49:26.959Z,23.90
2018-12-08T17:52:03.747Z,22.30
2018-12-08T17:54:43.307Z,21.80
2018-12-08T17:57:26.721Z,23.10
2018-12-08T18:00:07.535Z,22.80
2018-12-08T18:02:46.249Z,20.90
2018-12-08T18:05:21.366Z,22.00
2018-12-08T18:07:56.602Z,23.00
2018-12-08T18:10:33.883Z,22.30
2018-12-08T18:13:08.931Z,22.60
2018-12-08T18:15:43.343Z,21.70
2018-12-08T18:21:12.121Z,22.30
2018-12-08T18:23:54.820Z,24.30
2018-12-08T18:26:31.857Z,23.40
2018-12-08T18:29:11.175Z,22.80
2018-12-08T18:31:55.472Z,23.70
2018-12-08T18:34:33.081Z,22.70
2018-12-08T18:37:25.680Z,22.60
2018-12-08T18:40:00.714Z,23.40
2018-12-08T18:42:39.695Z,23.30
2018-12-08T18:45:14.584Z,21.30
2018-12-08T18:47:51.546Z,22.20
2018-12-08T18:50:30.360Z,21.60
2018-12-08T18:53:10.889Z,20.80
2018-12-08T18:55:51.091Z,18.40
2018-12-08T18:58:26.694Z,18.60
2018-12-08T19:01:06.888Z,19.60
2018-12-08T19:03:44.107Z,18.30
2018-12-08T19:06:22.678Z,19.20
2018-12-08T19:09:00.275Z,19.80
2018-12-08T19:11:40.272Z,17.30
2018-12-08T19:14:15.863Z,19.00
2018-12-08T19:16:56.907Z,19.20
2018-12-08T19:19:36.452Z,19.80
2018-12-08T19:22:29.734Z,18.60
2018-12-08T19:25:19.256Z,20.10
2018-12-08T19:27:59.007Z,19.00
2018-12-08T19:33:23.312Z,18.90
2018-12-08T19:36:02.514Z,17.90
2018-12-08T19:38:37.592Z,18.40
2018-12-08T19:41:12.297Z,20.10
2018-12-08T19:43:46.994Z,20.40
2018-12-08T19:46:22.444Z,20.20
2018-12-08T19:48:58.212Z,20.80
2018-12-08T19:51:32.822Z,20.00
2018-12-08T19:54:07.338Z,19.70
2018-12-08T19:56:41.939Z,18.70
2018-12-08T19:59:16.612Z,17.70
2018-12-08T20:01:52.030Z,17.50
2018-12-08T20:04:26.763Z,17.50
2018-12-08T20:07:01.760Z,17.90
2018-12-08T20:09:36.480Z,18.30
2018-12-08T20:12:12.963Z,19.10
2018-12-08T20:14:51.410Z,20.10
2018-12-08T20:17:26.108Z,20.00
2018-12-08T20:20:01.099Z,20.70
2018-12-08T20:22:36.293Z,22.60
2018-12-08T20:25:10.859Z,23.60
2018-12-08T20:27:45.724Z,26.00
2018-12-08T20:33:10.043Z,30.80
2018-12-08T20:35:44.922Z,34.00
2018-12-08T20:38:20.533Z,36.80
2018-12-08T20:43:38.525Z,40.90
2018-12-08T20:46:13.090Z,42.20
2018-12-08T20:48:47.532Z,44.80
2018-12-08T20:51:22.218Z,45.90
2018-12-08T20:53:56.647Z,47.00
2018-12-08T20:56:31.979Z,48.10
2018-12-08T20:59:13.015Z,49.20
2018-12-08T21:01:54.817Z,49.10
2018-12-08T21:04:40.941Z,49.60
2018-12-08T21:07:16.911Z,50.20
2018-12-08T21:12:47.704Z,50.40
2018-12-08T21:15:39.070Z,50.40
2018-12-08T21:21:25.921Z,50.50
2018-12-08T21:29:46.373Z,50.50
2018-12-08T21:32:24.682Z,50.40
2018-12-08T21:35:11.704Z,50.40
2018-12-08T21:44:56.458Z,50.50
2018-12-08T21:47:44.904Z,50.30
2018-12-08T21:50:20.019Z,50.00
2018-12-08T21:53:00.247Z,49.80
2018-12-08T21:55:40.942Z,50.10
2018-12-08T21:58:18.771Z,50.40
2018-12-08T22:00:55.150Z,50.50
2018-12-08T22:03:30.842Z,50.60
2018-12-08T22:06:08.996Z,50.60
2018-12-08T22:08:49.321Z,50.30
2018-12-08T22:11:24.865Z,50.10
2018-12-08T22:14:03.853Z,49.60
2018-12-08T22:16:42.164Z,50.00
2018-12-08T22:19:24.772Z,50.00
2018-12-08T22:22:05.325Z,50.00
2018-12-08T22:24:42.944Z,50.40
2018-12-08T22:27:20.559Z,50.10
2018-12-08T22:29:56.395Z,49.40
2018-12-08T22:32:31.167Z,48.50
2018-12-08T22:35:09.522Z,46.70
2018-12-08T22:37:47.203Z,43.40
2018-12-08T22:40:24.302Z,41.20
2018-12-08T22:43:06.573Z,39.40
2018-12-08T22:45:44.026Z,37.60
2018-12-08T22:48:27.312Z,36.70
2018-12-08T22:51:07.824Z,36.60
2018-12-08T22:53:44.441Z,36.90
2018-12-08T22:56:25.984Z,37.50
2018-12-08T22:59:03.956Z,38.10
2018-12-08T23:01:40.564Z,37.50
2018-12-08T23:04:21.229Z,38.30
2018-12-08T23:07:12.273Z,38.30
2018-12-08T23:09:51.685Z,36.40
2018-12-08T23:12:27.813Z,36.40
2018-12-08T23:15:04.911Z,36.50
2018-12-08T23:17:39.987Z,36.80
2018-12-08T23:20:15.894Z,36.00
2018-12-08T23:22:52.585Z,35.80
2018-12-08T23:25:27.519Z,36.20
2018-12-08T23:28:05.903Z,34.70
2018-12-08T23:30:41.933Z,35.70
2018-12-08T23:33:16.303Z,36.50
2018-12-08T23:38:32.607Z,36.10
2018-12-08T23:41:07.214Z,38.20
2018-12-08T23:43:42.352Z,40.20
2018-12-08T23:46:17.302Z,41.90
2018-12-08T23:48:57.754Z,43.40
2018-12-08T23:51:36.820Z,47.20
2018-12-08T23:54:14.530Z,49.70
2018-12-08T23:56:57.801Z,49.60
2018-12-08T23:59:36.470Z,50.60
